Time;durP1;ratioP1;P1;durP2;ratioP2;P2;SDS_P1;SDS_P2;PMS_P1;PMS_P2;Temp;Humidity;BMP_temperature;BMP_pressure;BME280_temperature;BME280_humidity;BME280_pressure;Samples;Min_cycle;Max_cycle;Signal;HPM_P1;HPM_P2
2021/03/10 00:01:15;;;;;;;18.60;15.80;;;;;;;6.30;48.05;101793.25;6142217;28;20621;-52
2021/03/10 00:04:36;;;;;;;16.77;14.83;;;;;;;6.56;47.14;101793.03;6145419;28;20256;-55
2021/03/10 00:07:57;;;;;;;17.63;14.97;;;;;;;6.45;46.97;101796.22;6131052;28;20239;-53
2021/03/10 00:11:18;;;;;;;17.77;15.87;;;;;;;6.53;47.18;101798.13;6138444;28;20235;-57
2021/03/10 00:14:38;;;;;;;15.90;14.13;;;;;;;6.49;47.13;101803.25;6126706;28;20648;-54
2021/03/10 00:17:58;;;;;;;15.83;14.23;;;;;;;6.54;46.84;101802.47;6138735;28;20242;-55
2021/03/10 00:21:20;;;;;;;16.47;14.70;;;;;;;6.50;47.32;101809.28;6143228;28;20277;-55
2021/03/10 00:24:41;;;;;;;17.10;14.93;;;;;;;6.42;47.20;101806.50;6140735;28;20231;-54
2021/03/10 00:28:01;;;;;;;18.83;14.97;;;;;;;6.53;47.06;101806.75;6115427;29;20641;-54
2021/03/10 00:31:22;;;;;;;20.47;15.97;;;;;;;6.55;47.13;101801.63;6139460;28;20346;-57
2021/03/10 00:34:42;;;;;;;16.83;15.13;;;;;;;6.31;47.46;101802.78;6120835;28;20330;-56
2021/03/10 00:38:03;;;;;;;18.53;15.20;;;;;;;6.40;47.47;101800.44;6147354;28;20243;-54
2021/03/10 00:41:24;;;;;;;17.03;14.37;;;;;;;6.53;47.48;101795.53;6149888;28;20734;-52
2021/03/10 00:44:45;;;;;;;16.90;13.63;;;;;;;6.52;46.80;101796.38;6138096;28;20219;-56
2021/03/10 00:48:06;;;;;;;16.97;15.30;;;;;;;6.39;46.96;101801.25;6146488;28;20649;-53
2021/03/10 00:51:26;;;;;;;16.07;14.37;;;;;;;6.44;46.79;101799.66;6140293;28;20235;-56
2021/03/10 00:54:46;;;;;;;16.50;14.73;;;;;;;6.37;46.92;101805.53;6146702;28;20231;-54
2021/03/10 00:58:08;;;;;;;16.50;14.73;;;;;;;6.36;46.48;101800.31;6131010;29;20314;-57
2021/03/10 01:01:28;;;;;;;16.10;13.90;;;;;;;6.32;46.82;101804.56;6138832;28;20688;-55
2021/03/10 01:04:48;;;;;;;16.10;14.40;;;;;;;6.46;46.60;101808.34;6141111;28;20231;-55
2021/03/10 01:08:09;;;;;;;15.23;13.27;;;;;;;6.38;46.29;101803.78;6143697;28;20326;-55
2021/03/10 01:11:29;;;;;;;14.43;12.93;;;;;;;6.42;46.31;101800.47;6144547;28;20993;-56
2021/03/10 01:14:50;;;;;;;16.03;14.30;;;;;;;5.98;46.72;101808.88;6131586;28;20227;-56
2021/03/10 01:18:10;;;;;;;15.37;13.83;;;;;;;6.27;46.73;101800.97;6142034;29;20231;-56
2021/03/10 01:21:31;;;;;;;14.87;12.23;;;;;;;6.42;46.44;101795.28;6146072;28;20239;-54
2021/03/10 01:24:52;;;;;;;14.40;12.90;;;;;;;6.44;46.43;101793.63;6140948;28;20322;-55
2021/03/10 01:28:12;;;;;;;18.97;16.33;;;;;;;6.49;46.23;101792.88;6136728;28;20235;-56
2021/03/10 01:31:33;;;;;;;16.03;13.17;;;;;;;6.60;45.89;101795.72;6143543;28;20238;-56
2021/03/10 01:34:53;;;;;;;14.30;12.80;;;;;;;6.66;45.88;101805.31;6143216;28;20247;-56
2021/03/10 01:38:14;;;;;;;15.90;14.17;;;;;;;6.60;45.78;101802.59;6141387;28;20239;-53
2021/03/10 01:41:36;;;;;;;16.83;14.07;;;;;;;6.66;45.86;101795.84;6138853;28;20239;-57
2021/03/10 01:44:56;;;;;;;14.37;12.77;;;;;;;6.64;45.68;101791.47;6130333;28;20228;-56
2021/03/10 01:48:21;;;;;;;15.17;13.57;;;;;;;6.65;45.77;101788.03;6141461;28;20238;-55
2021/03/10 01:51:41;;;;;;;14.30;12.53;;;;;;;6.72;45.80;101784.75;6138250;28;20275;-53
2021/03/10 01:55:02;;;;;;;15.00;13.43;;;;;;;6.58;45.63;101787.03;6138572;28;20265;-55
2021/03/10 01:58:23;;;;;;;19.03;14.00;;;;;;;6.44;46.00;101794.47;6143025;28;20227;-55
2021/03/10 02:01:43;;;;;;;17.43;14.77;;;;;;;6.49;45.92;101790.31;6148364;28;20228;-56
2021/03/10 02:05:07;;;;;;;15.13;12.70;;;;;;;6.41;46.07;101786.63;6145955;28;20227;-56
2021/03/10 02:08:44;;;;;;;15.37;13.63;;;;;;;6.30;45.95;101789.00;6142051;28;20230;-56
2021/03/10 02:12:11;;;;;;;14.67;13.17;;;;;;;6.53;45.88;101792.94;6139894;28;20569;-54
2021/03/10 02:15:40;;;;;;;14.43;12.93;;;;;;;6.38;45.78;101791.75;6142921;28;20235;-54
2021/03/10 02:19:11;;;;;;;14.13;12.63;;;;;;;6.36;45.99;101798.63;6146195;28;20258;-51
2021/03/10 02:22:51;;;;;;;17.83;13.73;;;;;;;6.46;45.76;101797.13;6145388;28;20239;-52
2021/03/10 02:26:33;;;;;;;14.57;13.03;;;;;;;6.33;46.14;101792.47;6145587;28;20235;-53
2021/03/10 02:29:55;;;;;;;16.00;13.57;;;;;;;6.37;46.16;101792.59;6145618;28;20231;-54
2021/03/10 02:33:18;;;;;;;15.60;14.00;;;;;;;6.45;45.52;101793.63;6145229;28;20231;-55
2021/03/10 02:36:40;;;;;;;15.03;13.03;;;;;;;6.44;45.91;101799.66;6145016;28;20238;-54
2021/03/10 02:40:01;;;;;;;15.30;13.53;;;;;;;6.28;45.80;101798.44;6143819;28;20239;-55
2021/03/10 02:43:24;;;;;;;14.53;13.03;;;;;;;5.99;46.67;101789.94;6144556;28;20230;-54
2021/03/10 02:46:45;;;;;;;17.63;14.07;;;;;;;5.99;46.52;101789.94;6141395;28;20341;-54
2021/03/10 02:50:08;;;;;;;17.37;15.00;;;;;;;5.83;46.81;101792.94;6152020;28;20238;-56
2021/03/10 02:53:29;;;;;;;13.77;12.37;;;;;;;5.98;46.82;101792.50;6142013;28;20231;-55
2021/03/10 02:56:50;;;;;;;13.77;12.37;;;;;;;6.01;46.61;101798.63;6145510;28;20223;-54
2021/03/10 03:00:14;;;;;;;14.13;12.63;;;;;;;6.08;46.21;101797.03;6143930;28;20235;-55
2021/03/10 03:03:36;;;;;;;14.83;13.00;;;;;;;6.08;46.31;101790.16;6145183;28;20235;-54
2021/03/10 03:06:56;;;;;;;15.47;12.63;;;;;;;6.10;45.84;101791.06;6147291;28;20239;-54
2021/03/10 03:10:20;;;;;;;14.80;13.20;;;;;;;5.95;46.86;101792.38;6138979;28;20950;-55
2021/03/10 03:13:41;;;;;;;14.37;12.50;;;;;;;5.98;46.91;101790.78;6142676;28;20227;-53
2021/03/10 03:17:02;;;;;;;13.17;11.70;;;;;;;5.99;46.53;101787.38;6142870;28;20338;-57
2021/03/10 03:20:25;;;;;;;13.67;11.07;;;;;;;6.00;46.63;101791.69;6146895;28;20242;-56
2021/03/10 03:23:46;;;;;;;13.97;12.27;;;;;;;5.91;46.74;101796.56;6145851;28;20247;-54
2021/03/10 03:27:08;;;;;;;14.63;13.10;;;;;;;6.01;46.62;101797.72;6145331;28;20243;-55
2021/03/10 03:30:31;;;;;;;13.57;11.33;;;;;;;5.67;47.00;101792.53;6145944;28;20243;-53
2021/03/10 03:33:52;;;;;;;13.20;11.80;;;;;;;5.79;46.52;101791.09;6140619;28;20235;-55
2021/03/10 03:37:14;;;;;;;14.63;13.07;;;;;;;5.80;46.21;101785.97;6142010;28;20235;-58
2021/03/10 03:40:35;;;;;;;13.67;10.83;;;;;;;5.68;46.55;101776.19;6145829;28;20625;-57
2021/03/10 03:43:59;;;;;;;13.60;11.67;;;;;;;5.74;46.52;101775.47;6116738;28;20288;-56
2021/03/10 03:47:21;;;;;;;15.47;12.37;;;;;;;5.75;46.95;101769.47;6149351;28;20262;-54
2021/03/10 03:50:42;;;;;;;13.57;12.07;;;;;;;5.62;46.96;101763.13;6146306;28;20223;-55
2021/03/10 03:54:05;;;;;;;27.67;24.77;;;;;;;5.71;47.00;101754.72;6131360;28;20234;-57
2021/03/10 03:57:26;;;;;;;30.77;27.47;;;;;;;5.66;46.84;101752.03;6144543;28;20247;-56
2021/03/10 04:00:46;;;;;;;30.23;27.07;;;;;;;5.52;46.70;101753.34;6128368;28;20783;-56
2021/03/10 04:04:07;;;;;;;19.30;16.07;;;;;;;5.30;47.15;101759.66;6141511;28;20349;-55
2021/03/10 04:07:27;;;;;;;12.40;10.93;;;;;;;4.99;47.96;101763.94;6149253;28;20235;-57
2021/03/10 04:10:48;;;;;;;13.27;11.23;;;;;;;5.14;47.42;101753.19;6141572;28;20664;-57
2021/03/10 04:14:09;;;;;;;14.47;10.83;;;;;;;5.15;47.49;101756.63;6134606;28;20236;-55
2021/03/10 04:17:29;;;;;;;12.53;10.13;;;;;;;5.10;47.46;101759.97;6142773;28;20231;-55
2021/03/10 04:20:49;;;;;;;13.67;11.73;;;;;;;5.16;47.45;101751.53;6145613;28;20529;-56
2021/03/10 04:24:10;;;;;;;12.03;10.83;;;;;;;5.23;47.12;101763.75;6145063;28;20235;-55
2021/03/10 04:27:31;;;;;;;12.10;10.30;;;;;;;5.12;47.28;101776.38;6152117;28;20239;-54
2021/03/10 04:30:52;;;;;;;11.00;9.63;;;;;;;4.79;47.56;101778.84;6132300;28;20585;-57
2021/03/10 04:34:12;;;;;;;12.47;10.13;;;;;;;4.63;47.24;101779.19;6140121;28;20235;-55
2021/03/10 04:37:33;;;;;;;14.87;11.23;;;;;;;4.73;47.35;101773.53;6144909;28;20247;-54
2021/03/10 04:40:53;;;;;;;12.27;10.67;;;;;;;4.86;46.75;101769.56;6143363;28;20227;-52
2021/03/10 04:44:15;;;;;;;12.57;11.27;;;;;;;4.82;47.26;101773.78;6139113;28;20238;-56
2021/03/10 04:47:36;;;;;;;12.60;11.40;;;;;;;4.74;47.21;101777.84;6141580;28;20343;-53
2021/03/10 04:50:56;;;;;;;10.33;9.23;;;;;;;4.82;46.67;101778.94;6135392;28;20239;-54
2021/03/10 04:54:17;;;;;;;11.20;9.30;;;;;;;4.89;45.99;101783.47;6145337;28;20223;-54
2021/03/10 04:57:38;;;;;;;10.03;8.60;;;;;;;4.78;46.80;101774.50;6140517;28;20235;-56
2021/03/10 05:00:59;;;;;;;12.37;9.87;;;;;;;4.74;46.26;101785.56;6143338;28;20632;-55
2021/03/10 05:04:19;;;;;;;9.07;8.17;;;;;;;4.66;46.41;101784.47;6132400;28;20776;-54
2021/03/10 05:07:40;;;;;;;16.03;9.73;;;;;;;4.66;47.20;101766.41;6145479;28;20222;-52
2021/03/10 05:11:01;;;;;;;13.93;10.90;;;;;;;4.23;47.46;101767.66;6140978;28;20239;-54
2021/03/10 05:14:22;;;;;;;12.90;8.37;;;;;;;4.23;47.14;101772.81;6144491;28;20326;-54
2021/03/10 05:17:43;;;;;;;10.97;8.53;;;;;;;4.40;47.33;101774.22;6143009;28;20596;-54
2021/03/10 05:21:04;;;;;;;9.00;8.10;;;;;;;4.41;46.83;101772.50;6148701;28;20238;-57
2021/03/10 05:24:24;;;;;;;10.50;9.40;;;;;;;4.41;47.16;101767.34;6142565;28;20231;-51
2021/03/10 05:27:44;;;;;;;9.87;8.87;;;;;;;4.43;46.81;101766.56;6141527;28;20511;-54
2021/03/10 05:31:05;;;;;;;11.23;8.37;;;;;;;4.46;46.79;101761.53;6117395;28;20283;-55
2021/03/10 05:34:27;;;;;;;13.67;10.23;;;;;;;4.44;46.67;101763.19;6139139;28;20238;-56
2021/03/10 05:37:47;;;;;;;11.53;9.50;;;;;;;4.43;47.24;101776.03;6139505;28;20239;-53
2021/03/10 05:41:08;;;;;;;10.83;8.90;;;;;;;4.45;47.26;101766.63;6136754;28;20259;-53
2021/03/10 05:44:28;;;;;;;15.83;10.27;;;;;;;4.45;47.43;101762.34;6126001;28;20370;-57
2021/03/10 05:47:50;;;;;;;13.93;9.73;;;;;;;4.40;46.61;101776.81;6134603;28;20227;-53
2021/03/10 05:51:11;;;;;;;10.97;9.57;;;;;;;4.24;46.64;101771.97;6141896;28;20613;-58
2021/03/10 05:54:36;;;;;;;13.33;9.13;;;;;;;3.43;48.18;101776.16;6126582;28;20230;-52
2021/03/10 05:57:56;;;;;;;13.50;8.63;;;;;;;3.52;48.38;101785.88;6141302;28;20239;-54
2021/03/10 06:01:17;;;;;;;10.37;8.30;;;;;;;4.01;47.56;101790.13;6140074;28;20235;-53
2021/03/10 06:04:39;;;;;;;12.03;9.47;;;;;;;3.42;47.78;101786.38;6142439;28;20222;-55
2021/03/10 06:08:01;;;;;;;11.03;8.77;;;;;;;3.17;48.34;101782.91;6128519;28;20665;-52
2021/03/10 06:11:24;;;;;;;9.67;8.17;;;;;;;3.49;47.56;101780.63;6136513;28;20227;-55
2021/03/10 06:14:44;;;;;;;9.60;7.93;;;;;;;3.90;46.95;101792.38;6137083;28;20309;-55
2021/03/10 06:18:05;;;;;;;13.17;9.83;;;;;;;3.44;47.62;101797.63;6137287;28;20243;-57
2021/03/10 06:21:26;;;;;;;12.03;9.13;;;;;;;3.65;47.36;101792.34;6141508;28;20515;-57
2021/03/10 06:24:50;;;;;;;11.67;8.17;;;;;;;3.92;47.16;101788.13;6138375;28;20239;-57
2021/03/10 06:28:10;;;;;;;12.57;9.77;;;;;;;3.49;48.01;101790.91;6117851;28;20239;-54
2021/03/10 06:31:34;;;;;;;10.70;8.30;;;;;;;3.41;48.20;101782.91;6135038;28;20227;-55
2021/03/10 06:34:55;;;;;;;8.97;7.73;;;;;;;3.22;48.29;101790.78;6141487;28;20917;-52
2021/03/10 06:38:17;;;;;;;13.03;8.67;;;;;;;3.38;48.75;101782.81;6134471;28;20255;-57
2021/03/10 06:41:40;;;;;;;8.97;8.07;;;;;;;3.88;47.40;101788.00;6135521;28;20409;-56
2021/03/10 06:45:01;;;;;;;13.87;8.43;;;;;;;4.48;50.18;101797.69;6120717;28;20259;-55
2021/03/10 06:48:23;;;;;;;11.60;9.00;;;;;;;4.33;46.67;101790.31;6136091;28;20605;-57
2021/03/10 06:51:51;;;;;;;10.37;8.23;;;;;;;4.38;46.53;101793.03;6138410;28;20228;-59
2021/03/10 06:55:12;;;;;;;10.80;9.07;;;;;;;4.35;45.72;101804.16;6133617;28;20620;-57
2021/03/10 06:58:34;;;;;;;11.40;9.10;;;;;;;3.40;47.80;101808.63;6142820;28;20228;-56
2021/03/10 07:01:54;;;;;;;11.20;8.93;;;;;;;3.28;48.45;101815.09;6145638;28;20606;-55
2021/03/10 07:05:17;;;;;;;10.80;8.57;;;;;;;3.49;48.21;101806.38;6142856;28;20235;-59
2021/03/10 07:08:40;;;;;;;9.93;8.63;;;;;;;3.45;47.83;101814.81;6136642;28;20231;-54
2021/03/10 07:12:01;;;;;;;14.40;7.97;;;;;;;3.27;49.14;101805.59;6144800;28;20588;-58
2021/03/10 07:15:22;;;;;;;8.83;7.90;;;;;;;3.25;49.50;101820.13;6139044;28;20271;-56
2021/03/10 07:18:43;;;;;;;9.43;8.50;;;;;;;3.59;48.66;101821.34;6143452;28;20241;-58
2021/03/10 07:22:06;;;;;;;13.57;9.70;;;;;;;3.69;48.70;101825.13;6134578;28;20235;-58
2021/03/10 07:25:31;;;;;;;13.07;9.47;;;;;;;3.79;48.37;101821.16;6139549;28;20334;-56
2021/03/10 07:28:55;;;;;;;12.93;9.33;;;;;;;4.02;55.15;101827.97;6138383;28;20223;-63
2021/03/10 07:32:23;;;;;;;11.30;9.17;;;;;;;3.10;49.96;101823.00;6142091;28;20231;-59
2021/03/10 07:35:52;;;;;;;12.57;10.97;;;;;;;3.96;48.17;101812.31;6141743;28;20222;-57
2021/03/10 07:39:21;;;;;;;11.77;9.07;;;;;;;3.82;48.19;101813.53;6145985;28;20262;-57
2021/03/10 07:42:50;;;;;;;14.17;9.53;;;;;;;3.91;48.46;101813.84;6144285;28;20599;-58
2021/03/10 07:46:22;;;;;;;14.67;10.00;;;;;;;4.48;47.36;101818.31;6136825;28;20239;-58
2021/03/10 07:49:43;;;;;;;14.90;10.97;;;;;;;4.49;47.34;101820.94;6147026;28;20847;-58
2021/03/10 07:53:04;;;;;;;12.73;9.77;;;;;;;5.06;45.87;101822.69;6127377;28;20230;-58
2021/03/10 07:56:29;;;;;;;14.00;10.27;;;;;;;4.86;46.03;101824.66;6135045;28;20259;-57
2021/03/10 07:59:53;;;;;;;12.37;9.17;;;;;;;4.93;46.05;101824.00;6144093;28;20254;-57
2021/03/10 08:03:14;;;;;;;15.23;9.63;;;;;;;4.65;46.33;101814.56;6136838;28;20316;-53
2021/03/10 08:06:42;;;;;;;12.47;9.73;;;;;;;4.31;48.14;101813.47;6134476;28;20992;-54
2021/03/10 08:10:03;;;;;;;13.73;10.33;;;;;;;4.48;47.41;101819.19;6130165;28;20780;-56
2021/03/10 08:13:24;;;;;;;17.87;10.47;;;;;;;4.33;48.11;101818.69;6148158;28;20259;-56
2021/03/10 08:16:46;;;;;;;11.67;10.43;;;;;;;5.00;46.69;101819.03;6139144;28;20235;-55
2021/03/10 08:20:07;;;;;;;13.27;11.30;;;;;;;5.30;46.34;101812.19;6140895;28;20631;-57
2021/03/10 08:23:29;;;;;;;13.60;11.83;;;;;;;5.20;47.24;101819.63;6139472;28;20318;-54
2021/03/10 08:26:51;;;;;;;14.33;11.90;;;;;;;5.33;46.68;101821.72;6126293;29;20236;-57
2021/03/10 08:30:14;;;;;;;15.63;11.07;;;;;;;4.05;50.05;101828.09;6123064;28;20306;-57
2021/03/10 08:33:45;;;;;;;12.83;11.47;;;;;;;4.41;49.40;101824.97;6144053;28;20231;-57
2021/03/10 08:37:08;;;;;;;15.67;12.90;;;;;;;4.76;48.96;101830.38;6140325;28;20235;-55
2021/03/10 08:40:32;;;;;;;21.67;14.13;;;;;;;4.71;49.39;101837.09;6137324;28;20246;-53
2021/03/10 08:44:00;;;;;;;21.80;12.77;;;;;;;4.84;49.47;101834.06;6142454;28;20874;-53
2021/03/10 08:47:24;;;;;;;13.13;11.83;;;;;;;4.77;49.28;101832.13;6139132;28;20227;-55
2021/03/10 08:50:46;;;;;;;14.07;12.20;;;;;;;5.26;48.21;101822.41;6134165;28;20322;-55
2021/03/10 08:54:07;;;;;;;14.97;12.30;;;;;;;5.58;47.91;101809.50;6140674;28;20234;-55
2021/03/10 08:57:30;;;;;;;16.93;13.50;;;;;;;5.83;47.83;101808.44;6130051;28;20255;-60
2021/03/10 09:00:51;;;;;;;17.80;12.73;;;;;;;6.35;46.66;101803.75;6136784;28;20235;-55
2021/03/10 09:04:12;;;;;;;16.57;13.73;;;;;;;6.10;46.83;101788.47;6130831;28;20516;-56
2021/03/10 09:07:34;;;;;;;13.77;12.20;;;;;;;5.73;48.00;101782.34;6120522;28;20646;-57
2021/03/10 09:10:57;;;;;;;20.23;15.10;;;;;;;6.16;47.61;101777.41;6127541;29;20349;-52
2021/03/10 09:14:35;;;;;;;20.63;15.63;;;;;;;5.62;50.33;101782.91;6142489;28;20316;-53
2021/03/10 09:18:03;;;;;;;20.20;15.37;;;;;;;5.24;52.31;101778.44;6139204;28;20242;-57
2021/03/10 09:21:23;;;;;;;17.43;15.37;;;;;;;4.98;53.60;101782.84;6125356;28;20248;-54
2021/03/10 09:24:49;;;;;;;18.57;16.57;;;;;;;4.50;53.98;101784.00;6133494;28;20250;-54
2021/03/10 09:28:15;;;;;;;24.50;15.60;;;;;;;5.19;52.32;101772.25;6126179;28;20247;-55
2021/03/10 09:31:55;;;;;;;17.97;14.53;;;;;;;5.21;52.81;101773.16;6137473;28;20234;-51
2021/03/10 09:35:22;;;;;;;22.20;14.53;;;;;;;5.88;51.63;101758.59;6141618;28;20217;-57
2021/03/10 09:38:51;;;;;;;20.27;15.63;;;;;;;6.63;49.87;101763.84;6136511;28;20968;-56
2021/03/10 09:42:12;;;;;;;17.93;15.43;;;;;;;6.37;51.44;101769.28;6125868;29;20242;-54
2021/03/10 09:45:41;;;;;;;20.77;16.23;;;;;;;6.10;51.69;101772.97;6124933;28;20636;-56
2021/03/10 09:49:04;;;;;;;23.37;17.07;;;;;;;5.81;53.71;101763.56;6124463;28;20317;-58
2021/03/10 09:52:35;;;;;;;21.00;16.10;;;;;;;6.08;52.55;101766.88;6128784;28;20265;-58
2021/03/10 09:56:04;;;;;;;22.50;17.43;;;;;;;5.75;54.28;101758.25;6136247;28;20235;-58
2021/03/10 09:59:32;;;;;;;23.30;18.77;;;;;;;6.17;53.45;101755.91;6141211;28;20576;-59
2021/03/10 10:02:54;;;;;;;22.40;18.73;;;;;;;6.09;54.28;101753.13;6127590;28;20231;-57
2021/03/10 10:06:20;;;;;;;25.10;17.23;;;;;;;6.63;52.95;101740.53;6122606;28;20241;-57
2021/03/10 10:09:44;;;;;;;18.83;16.30;;;;;;;7.32;50.99;101741.97;6131202;28;20223;-56
2021/03/10 10:13:11;;;;;;;21.97;18.47;;;;;;;7.41;50.79;101736.09;6121474;28;20609;-55
2021/03/10 10:16:36;;;;;;;25.60;19.50;;;;;;;6.03;55.59;101740.06;6143194;28;20235;-56
2021/03/10 10:19:57;;;;;;;23.10;18.83;;;;;;;6.21;55.53;101734.44;6137226;28;20227;-54
2021/03/10 10:23:19;;;;;;;27.70;20.47;;;;;;;7.00;53.73;101728.38;6124141;28;20239;-57
2021/03/10 10:26:50;;;;;;;26.33;22.00;;;;;;;7.31;53.60;101737.63;6124840;28;20321;-57
2021/03/10 10:30:18;;;;;;;24.20;20.77;;;;;;;6.79;55.31;101736.59;6137162;28;20230;-57
2021/03/10 10:33:39;;;;;;;27.40;22.17;;;;;;;7.64;53.44;101726.13;6137037;28;20227;-54
2021/03/10 10:36:59;;;;;;;27.93;22.60;;;;;;;7.65;53.52;101720.97;6159217;28;20238;-55
2021/03/10 10:40:39;;;;;;;31.30;21.97;;;;;;;7.78;53.29;101726.38;6136176;28;20231;-57
2021/03/10 10:44:01;;;;;;;31.37;23.37;;;;;;;6.97;55.92;101720.56;6144341;28;20242;-54
2021/03/10 10:47:23;;;;;;;36.33;26.97;;;;;;;7.04;56.32;101715.53;6134061;28;20261;-52
2021/03/10 10:50:47;;;;;;;37.67;28.07;;;;;;;7.16;56.27;101712.28;6131394;28;20243;-54
2021/03/10 10:54:08;;;;;;;31.87;25.47;;;;;;;6.94;57.54;101698.06;6132238;28;20236;-56
2021/03/10 10:57:33;;;;;;;37.67;28.07;;;;;;;6.66;59.24;101717.31;6136471;28;21024;-52
2021/03/10 11:00:54;;;;;;;33.83;26.17;;;;;;;7.72;55.78;101710.72;6145635;28;20223;-59
2021/03/10 11:04:14;;;;;;;38.00;27.17;;;;;;;8.08;54.64;101702.63;6143031;28;20234;-58
2021/03/10 11:07:35;;;;;;;34.97;27.10;;;;;;;7.35;56.53;101695.38;6142175;28;20231;-55
2021/03/10 11:10:59;;;;;;;36.87;26.63;;;;;;;8.08;54.27;101700.03;6129238;28;20234;-52
2021/03/10 11:14:21;;;;;;;32.73;26.87;;;;;;;8.93;51.43;101693.44;6133111;28;20644;-52
2021/03/10 11:17:50;;;;;;;34.37;25.43;;;;;;;8.18;52.85;101699.34;6113739;28;21032;-55
2021/03/10 11:21:11;;;;;;;34.97;26.17;;;;;;;8.34;53.40;101690.06;6124114;28;20593;-55
2021/03/10 11:24:32;;;;;;;30.43;23.83;;;;;;;7.97;54.18;101702.47;6124706;28;20239;-56
2021/03/10 11:27:52;;;;;;;36.20;25.90;;;;;;;7.91;54.41;101697.22;6133007;28;20231;-56
2021/03/10 11:31:15;;;;;;;33.03;25.43;;;;;;;7.12;56.68;101697.53;6131347;28;20532;-55
2021/03/10 11:34:38;;;;;;;40.30;30.33;;;;;;;7.98;54.04;101693.84;6136160;28;20234;-52
2021/03/10 11:38:00;;;;;;;28.83;25.53;;;;;;;7.71;53.70;101691.66;6128352;28;20243;-58
2021/03/10 11:41:21;;;;;;;29.03;21.57;;;;;;;7.54;53.03;101696.59;6122204;28;20758;-58
2021/03/10 11:44:41;;;;;;;27.17;21.27;;;;;;;7.92;51.61;101693.75;6145777;28;20226;-57
2021/03/10 11:48:03;;;;;;;30.80;23.20;;;;;;;8.24;51.13;101677.81;6137648;28;20239;-54
2021/03/10 11:51:24;;;;;;;27.50;22.27;;;;;;;8.99;49.36;101677.91;6141307;28;20235;-58
2021/03/10 11:54:47;;;;;;;27.70;21.30;;;;;;;8.75;48.87;101674.19;6141008;28;20303;-54
2021/03/10 11:58:08;;;;;;;23.40;20.23;;;;;;;7.44;51.98;101685.19;6143438;28;20301;-57
2021/03/10 12:01:30;;;;;;;23.83;20.77;;;;;;;8.37;50.37;101681.44;6129315;28;21859;-57
2021/03/10 12:04:52;;;;;;;26.27;20.37;;;;;;;8.30;49.92;101680.50;6110722;28;20220;-55
2021/03/10 12:08:13;;;;;;;28.80;22.33;;;;;;;9.54;46.87;101664.59;6128768;28;20274;-56
2021/03/10 12:11:34;;;;;;;26.43;21.37;;;;;;;8.77;48.62;101664.69;6144435;28;20641;-54
2021/03/10 12:14:55;;;;;;;23.53;19.40;;;;;;;8.45;49.50;101656.47;6141236;28;20228;-57
2021/03/10 12:18:15;;;;;;;19.87;17.77;;;;;;;8.41;48.70;101652.06;6134590;28;20239;-57
2021/03/10 12:21:37;;;;;;;22.90;19.13;;;;;;;8.11;49.22;101656.00;6141743;28;20612;-55
2021/03/10 12:24:57;;;;;;;21.27;17.53;;;;;;;8.08;48.79;101640.38;6142371;28;20231;-55
2021/03/10 12:28:17;;;;;;;19.67;15.53;;;;;;;8.92;46.61;101650.13;6125489;28;20250;-59
2021/03/10 12:31:38;;;;;;;23.60;17.63;;;;;;;8.66;46.28;101641.16;6140474;28;20672;-58
2021/03/10 12:34:58;;;;;;;19.10;16.13;;;;;;;11.84;39.83;101615.09;6142262;28;20317;-56
2021/03/10 12:38:20;;;;;;;19.37;17.27;;;;;;;12.70;38.11;101612.22;6148690;28;20620;-59
2021/03/10 12:41:40;;;;;;;19.87;16.83;;;;;;;13.64;35.48;101595.03;6141988;28;20235;-55
2021/03/10 12:45:03;;;;;;;18.97;16.93;;;;;;;16.72;30.57;101578.81;6134292;28;20239;-55
2021/03/10 12:48:23;;;;;;;17.43;15.47;;;;;;;13.13;34.00;101577.97;6134282;28;20255;-56
2021/03/10 12:51:44;;;;;;;19.90;14.90;;;;;;;15.45;30.62;101555.94;6141066;28;20235;-58
2021/03/10 12:55:07;;;;;;;19.13;16.80;;;;;;;15.34;30.99;101560.50;6131322;28;20307;-58
2021/03/10 12:58:27;;;;;;;18.40;15.10;;;;;;;13.99;33.21;101540.53;6130095;28;20235;-52
2021/03/10 13:01:48;;;;;;;19.07;16.83;;;;;;;14.27;32.82;101540.22;6141186;28;20728;-56
2021/03/10 13:05:10;;;;;;;20.43;15.30;;;;;;;13.50;33.22;101525.34;6138652;28;20235;-57
2021/03/10 13:08:30;;;;;;;18.67;16.40;;;;;;;14.04;32.71;101529.16;6140616;28;20235;-58
2021/03/10 13:11:51;;;;;;;19.47;16.07;;;;;;;12.07;36.47;101533.28;6142544;28;20231;-57
2021/03/10 13:15:13;;;;;;;19.73;16.90;;;;;;;11.76;37.86;101539.41;6140444;28;20613;-58
2021/03/10 13:18:34;;;;;;;18.10;16.20;;;;;;;12.35;36.12;101532.28;6140751;28;20310;-58
2021/03/10 13:21:54;;;;;;;20.93;16.83;;;;;;;12.37;35.40;101512.25;6142441;28;20223;-57
2021/03/10 13:25:14;;;;;;;17.77;15.53;;;;;;;12.06;36.37;101510.63;6134776;28;20232;-58
2021/03/10 13:28:36;;;;;;;17.73;15.90;;;;;;;10.07;39.94;101515.78;6142472;28;20618;-54
2021/03/10 13:31:56;;;;;;;17.80;15.07;;;;;;;11.22;37.61;101513.44;6140291;28;20231;-59
2021/03/10 13:35:17;;;;;;;19.30;15.93;;;;;;;10.16;39.54;101507.16;6131310;28;20614;-59
2021/03/10 13:38:37;;;;;;;20.40;15.93;;;;;;;10.88;38.81;101498.69;6138433;28;20239;-59
2021/03/10 13:41:58;;;;;;;18.27;16.27;;;;;;;10.68;39.00;101499.50;6141987;28;20264;-58
2021/03/10 13:45:19;;;;;;;19.33;16.70;;;;;;;12.05;36.13;101483.69;6137524;28;20231;-56
2021/03/10 13:48:39;;;;;;;20.37;18.20;;;;;;;10.64;38.39;101471.72;6140480;28;20243;-56
2021/03/10 13:52:01;;;;;;;17.43;15.60;;;;;;;10.17;39.81;101480.25;6129382;28;20613;-58
2021/03/10 13:55:22;;;;;;;18.70;16.80;;;;;;;10.08;40.48;101473.31;6139403;28;20227;-56
2021/03/10 13:58:43;;;;;;;18.60;16.13;;;;;;;11.05;38.08;101465.66;6141084;28;20234;-58
2021/03/10 14:02:05;;;;;;;18.00;15.67;;;;;;;10.57;37.97;101468.25;6142024;28;20329;-53
2021/03/10 14:05:25;;;;;;;21.10;17.53;;;;;;;9.27;41.40;101472.03;6139254;28;20231;-57
2021/03/10 14:08:45;;;;;;;21.87;17.63;;;;;;;9.46;41.31;101462.59;6142056;28;20219;-54
2021/03/10 14:12:07;;;;;;;18.90;16.47;;;;;;;9.62;41.17;101458.34;6131192;28;20257;-59
2021/03/10 14:15:27;;;;;;;21.63;16.50;;;;;;;8.27;43.41;101470.22;6130079;28;20235;-58
2021/03/10 14:18:49;;;;;;;18.57;16.00;;;;;;;8.19;44.41;101462.38;6139865;28;20627;-59
2021/03/10 14:22:09;;;;;;;18.47;16.47;;;;;;;8.56;43.86;101461.91;6137159;28;20231;-57
2021/03/10 14:25:30;;;;;;;21.13;18.27;;;;;;;8.24;44.96;101470.22;6137012;28;20242;-55
2021/03/10 14:28:50;;;;;;;20.60;17.93;;;;;;;7.49;46.89;101457.19;6138533;28;20231;-58
2021/03/10 14:32:11;;;;;;;24.43;19.17;;;;;;;8.38;44.78;101447.00;6131505;28;20232;-58
2021/03/10 14:35:32;;;;;;;24.00;20.00;;;;;;;8.42;44.99;101451.41;6143018;28;20230;-56
2021/03/10 14:38:53;;;;;;;22.17;17.87;;;;;;;8.03;46.20;101444.91;6145238;28;20782;-57
2021/03/10 14:42:13;;;;;;;19.77;17.47;;;;;;;8.02;45.95;101446.59;6128424;28;20235;-53
2021/03/10 14:45:34;;;;;;;20.03;17.10;;;;;;;8.75;44.48;101429.19;6133747;28;20251;-58
2021/03/10 14:48:55;;;;;;;20.30;17.23;;;;;;;8.25;45.97;101426.09;6134383;28;20624;-58
2021/03/10 14:52:17;;;;;;;19.27;17.20;;;;;;;8.53;45.23;101428.13;6138963;28;20227;-55
2021/03/10 14:55:37;;;;;;;21.40;17.93;;;;;;;8.39;45.56;101422.78;6139678;28;20224;-58
2021/03/10 14:58:58;;;;;;;20.30;18.20;;;;;;;8.22;46.35;101425.19;6142015;28;20606;-58
2021/03/10 15:02:19;;;;;;;21.23;18.47;;;;;;;7.94;47.15;101427.50;6116038;28;20239;-57
2021/03/10 15:05:40;;;;;;;19.37;17.27;;;;;;;8.63;45.60;101429.97;6136268;28;20558;-59
2021/03/10 15:09:01;;;;;;;21.93;16.87;;;;;;;8.35;46.46;101419.28;6131568;28;20239;-57
2021/03/10 15:12:21;;;;;;;18.83;16.67;;;;;;;8.47;46.07;101414.25;6142653;28;20227;-56
2021/03/10 15:15:42;;;;;;;21.00;18.20;;;;;;;7.95;47.32;101418.88;6137449;28;20410;-56
2021/03/10 15:19:02;;;;;;;22.37;16.97;;;;;;;7.98;47.53;101421.47;6142427;28;20549;-59
2021/03/10 15:22:23;;;;;;;23.10;19.83;;;;;;;8.12;47.39;101410.38;6135687;28;20317;-55
2021/03/10 15:25:44;;;;;;;20.63;18.10;;;;;;;8.51;46.69;101412.56;6140245;28;20235;-58
2021/03/10 15:29:04;;;;;;;23.13;19.97;;;;;;;8.25;47.28;101407.06;6145769;28;20561;-59
2021/03/10 15:32:25;;;;;;;21.93;19.23;;;;;;;8.37;47.57;101412.38;6138560;28;20614;-58